KDPG/DPG METAR and TAF weather

Enter ICAO airport designator
Station Type Date Time Source
KDPG METAR 2019/12/06 18:55 UTC NOAA

KDPG 061855Z 15002KT 1/8SM FG OVC002 00/00 A3033 RMK SLP282 T00020001 LAST


Station Type Date Time Source
KDPG Decoded METAR 2019/12/06 18:55 UTC NOAA

Dugway Proving Grounds, UT, United States (KDPG) 40-10N 112-56W 1325M
Dec 06, 2019 - 01:55 PM EST / 2019.12.06 1855 UTC
Wind: from the SSE (150 degrees) at 2 MPH (2 KT):0
Visibility: 1/8 mile(s):0
Sky conditions: overcast
Weather: fog
Temperature: 32.4 F (0.2 C)
Dew Point: 32.2 F (0.1 C)
Relative Humidity: 99%
Pressure (altimeter): 30.33 in. Hg (1027 hPa)
ob: KDPG 061855Z 15002KT 1/8SM FG OVC002 00/00 A3033 RMK SLP282 T00020001 LAST
cycle: 19

Station Type Date Time Source
KDPG TAF UTC NOAA

Error!

Example: see airport list